Latest Weather Observations for Taree Airport

IDN60801

Issued at 11:32 pm EDT Friday 15 November 2019 (issued every 10 minutes, with the page automatically refreshed every 10 minutes)

About weather observations | Map of weather stations | Latest weather observations for NSW | Other Formats
Station Details ID: 060141 Name: TAREE AIRPORT AWS Lat: -31.89 Lon: 152.51 Height: 8.0 m
Data from the previous 72 hours. | See also: Recent months at Taree Airport
Date/Time
EDT
Temp
°C
App
Temp
°C
Dew
Point
°C
Rel
Hum
%
Delta-T
°C
Wind Press
QNH
hPa
Press
MSL
hPa
Rain since
9am
mm
Dir  Spd
km/h
Gust
km/h
Spd
kts
Gust
kts
15/11:30pm 13.7 13.2 10.7 82 1.6 NNE 4 6 2 3 1010.0 1009.9 0.0
15/11:00pm 15.9 16.6 12.1 78 2.1 CALM 0 0 0 0 1010.0 1009.9 0.0
15/10:30pm 17.1 17.0 13.2 78 2.2 WSW 6 9 3 5 1009.8 1009.7 0.0
15/10:00pm 18.1 19.1 13.2 73 2.8 CALM 0 0 0 0 1009.6 1009.5 0.0
15/09:30pm 18.7 18.0 13.3 71 3.1 SSW 9 11 5 6 1009.4 1009.3 0.0
15/09:00pm 19.2 19.6 13.6 70 3.2 SSW 4 9 2 5 1009.0 1008.9 0.0
15/08:30pm 19.7 19.3 12.5 63 4.0 ESE 6 7 3 4 1008.7 1008.6 0.0
15/08:00pm 20.3 19.4 10.7 54 5.2 E 6 9 3 5 1008.3 1008.2 0.0
15/07:30pm 21.5 19.8 10.0 48 6.2 ENE 9 11 5 6 1007.9 1007.8 0.0
15/07:00pm 22.9 20.9 10.3 45 6.9 ENE 11 13 6 7 1007.5 1007.4 0.0
15/06:30pm 24.5 22.4 11.1 43 7.5 ENE 13 19 7 10 1007.0 1006.9 0.0
15/06:00pm 25.6 21.6 6.8 30 9.9 ENE 17 24 9 13 1006.6 1006.5 0.0
15/05:30pm 26.5 21.4 4.3 24 11.2 ENE 20 26 11 14 1006.6 1006.5 0.0
15/05:00pm 26.9 21.5 4.6 24 11.3 ENE 22 32 12 17 1006.5 1006.4 0.0
15/04:30pm 27.3 22.5 5.6 25 11.2 ENE 20 28 11 15 1006.4 1006.3 0.0
15/04:00pm 27.9 21.9 5.5 24 11.6 ENE 26 33 14 18 1006.4 1006.3 0.0
15/03:30pm 28.2 21.8 5.1 23 11.9 ENE 28 33 15 18 1006.5 1006.4 0.0
15/03:00pm 28.2 21.7 4.5 22 12.1 NE 28 33 15 18 1006.8 1006.7 0.0
15/02:30pm 28.1 21.8 3.7 21 12.3 ENE 26 32 14 17 1007.2 1007.1 0.0
15/02:00pm 28.5 21.9 4.1 21 12.4 ENE 28 33 15 18 1007.5 1007.4 0.0
15/01:30pm 29.0 23.2 4.5 21 12.6 ENE 24 30 13 16 1007.9 1007.8 0.0
15/01:00pm 28.7 24.5 5.5 23 12.1 E 17 26 9 14 1008.5 1008.4 0.0
15/12:30pm 28.7 24.3 2.8 19 12.9 SE 15 20 8 11 1009.0 1008.9 0.0
15/12:00pm 28.9 25.8 3.7 20 12.8 SSW 9 13 5 7 1009.7 1009.6 0.0
15/11:30am 28.2 25.3 2.4 19 12.7 S 7 11 4 6 1010.3 1010.2 0.0
15/11:00am 27.2 24.0 3.0 21 12.0 S 9 11 5 6 1010.9 1010.9 0.0
15/10:30am 26.4 22.9 3.6 23 11.3 SW 11 17 6 9 1011.3 1011.3 0.0
15/10:24am 26.5 23.0 3.7 23 11.3 SW 11 15 6 8 1011.4 1011.4 0.0
15/10:05am 26.0 23.3 5.6 27 10.5 WSW 9 13 5 7 1011.6 1011.6 0.0
15/10:00am 25.8 23.2 5.9 28 10.3 SW 9 11 5 6 1011.7 1011.7 0.0
15/09:43am 24.8 22.6 6.1 30 9.6 WSW 7 11 4 6 1011.8 1011.8 0.0
15/09:30am 23.6 21.7 6.8 34 8.7 W 6 9 3 5 1011.9 1011.9 0.0
15/09:00am 20.9 19.1 7.2 41 7.0 W 6 9 3 5 1012.2 1012.2 0.0
15/08:30am 18.0 16.1 6.5 47 5.7 WNW 6 9 3 5 1012.5 1012.5 0.0
15/08:00am 15.6 13.2 7.1 57 4.2 WNW 9 13 5 7 1012.6 1012.6 0.0
15/07:30am 13.4 12.1 7.6 68 2.8 W 4 7 2 4 1012.6 1012.6 0.0
15/07:00am 12.0 11.6 8.3 78 1.8 CALM 0 0 0 0 1012.5 1012.5 0.0
15/06:30am 10.2 9.8 8.1 87 1.0 CALM 0 0 0 0 1012.3 1012.3 0.0
15/06:00am 9.6 8.9 6.9 83 1.3 CALM 0 0 0 0 1012.2 1012.2 0.0
15/05:59am 9.7 9.0 7.0 83 1.3 CALM 0 0 0 0 1012.2 1012.2 0.0
15/05:30am 10.2 8.5 7.4 83 1.3 W 6 7 3 4 1011.7 1011.7 0.0
15/05:19am 10.3 9.5 8.1 86 1.1 SW 2 7 1 4 1011.6 1011.6 0.0
15/05:00am 10.1 9.6 7.7 85 1.2 CALM 0 0 0 0 1011.5 1011.5 0.0
15/04:30am 10.2 8.5 7.4 83 1.3 NW 6 6 3 3 1011.5 1011.5 0.0
15/04:00am 10.8 9.7 8.4 85 1.2 W 4 7 2 4 1011.3 1011.3 0.0
15/03:30am 10.7 9.8 7.8 82 1.4 NW 2 6 1 3 1011.4 1011.4 0.0
15/03:00am 11.5 9.8 8.2 80 1.6 W 7 9 4 5 1011.4 1011.4 0.0
15/02:40am 11.0 10.6 8.1 82 1.4 CALM 0 0 0 0 1011.4 1011.4 0.0
15/02:30am 11.5 11.2 8.7 83 1.4 CALM 0 0 0 0 1011.6 1011.6 0.0
15/02:00am 11.8 11.4 8.3 79 1.7 CALM 0 0 0 0 1011.8 1011.8 0.0
15/01:30am 12.3 11.9 8.4 77 1.9 CALM 0 0 0 0 1012.0 1012.0 0.0
15/01:00am 12.9 12.3 8.8 76 2.1 NNW 2 7 1 4 1012.3 1012.3 0.0
15/12:30am 14.0 12.7 9.2 73 2.4 W 6 9 3 5 1012.6 1012.6 0.0
15/12:00am 14.5 13.4 9.9 74 2.4 WSW 6 7 3 4 1012.7 1012.7 0.0
 
Date/Time
EDT
Temp
°C
App
Temp
°C
Dew
Point
°C
Rel
Hum
%
Delta-T
°C
Wind Press
QNH
hPa
Press
MSL
hPa
Rain since
9am
mm
Dir  Spd
km/h
Gust
km/h
Spd
kts
Gust
kts
14/11:30pm 15.1 13.8 10.1 72 2.6 WSW 7 11 4 6 1012.8 1012.8 0.0
14/11:00pm 15.1 14.0 8.3 64 3.4 NNW 4 7 2 4 1012.8 1012.8 0.0
14/10:30pm 14.9 13.4 8.4 65 3.3 NE 6 7 3 4 1013.2 1013.2 0.0
14/10:00pm 15.0 12.9 8.3 64 3.4 ENE 9 9 5 5 1013.3 1013.3 0.0
14/09:30pm 14.8 13.0 8.1 64 3.4 ENE 7 9 4 5 1013.5 1013.5 0.0
14/09:00pm 15.1 13.0 8.3 64 3.4 NE 9 13 5 7 1013.4 1013.4 0.0
14/08:30pm 15.9 14.3 8.6 62 3.7 NE 7 9 4 5 1013.3 1013.3 0.0
14/08:00pm 16.1 14.0 8.3 60 4.0 NE 9 13 5 7 1013.3 1013.3 0.0
14/07:30pm 16.4 13.3 7.3 55 4.5 ENE 13 15 7 8 1013.2 1013.2 0.0
14/07:00pm 18.8 15.7 7.3 47 5.8 ENE 13 17 7 9 1013.0 1013.0 0.0
14/06:30pm 19.5 16.2 7.9 47 6.0 E 15 19 8 10 1012.8 1012.8 0.0
14/06:00pm 20.2 16.5 6.5 41 6.9 E 15 20 8 11 1012.6 1012.6 0.0
14/05:30pm 20.7 16.9 7.7 43 6.7 ESE 17 22 9 12 1012.5 1012.5 0.0
14/05:00pm 21.1 17.1 6.6 39 7.3 ESE 17 22 9 12 1012.5 1012.5 0.0
14/04:30pm 21.5 17.3 5.8 36 7.9 ESE 17 22 9 12 1012.5 1012.5 0.0
14/04:00pm 21.7 17.1 5.6 35 8.0 ESE 19 26 10 14 1012.7 1012.7 0.0
14/03:30pm 21.7 16.3 4.7 33 8.3 SE 22 32 12 17 1012.8 1012.8 0.0
14/03:00pm 22.0 17.2 5.4 34 8.3 ESE 20 28 11 15 1013.0 1013.0 0.0
14/02:30pm 22.6 17.3 5.1 32 8.7 ESE 22 33 12 18 1013.3 1013.3 0.0
14/02:00pm 22.5 16.6 4.1 30 9.0 SE 24 33 13 18 1013.5 1013.5 0.0
14/01:30pm 23.0 17.9 4.0 29 9.3 SE 20 28 11 15 1013.9 1013.9 0.0
14/01:00pm 22.3 16.6 2.9 28 9.2 ESE 22 32 12 17 1014.3 1014.3 0.0
14/12:30pm 22.7 17.5 3.8 29 9.2 ESE 20 30 11 16 1014.6 1014.6 0.0
14/12:00pm 22.7 18.7 2.8 27 9.5 SSW 13 20 7 11 1015.0 1015.0 0.0
14/11:36am 23.6 19.1 0.0 21 10.7 NW 13 19 7 10 1015.4 1015.4 0.0
14/11:30am 23.6 20.4 0.7 22 10.6 NW 7 17 4 9 1015.4 1015.4 0.0
14/11:00am 22.7 18.1 -1.4 20 10.6 WNW 13 17 7 9 1015.8 1015.8 0.0
14/10:30am 22.1 17.9 -0.6 22 10.1 SW 11 15 6 8 1016.0 1016.0 0.0
14/10:00am 21.6 17.5 -0.4 23 9.8 W 11 17 6 9 1016.0 1016.0 0.0
14/09:30am 20.5 15.8 0.9 27 8.8 W 15 22 8 12 1016.0 1016.0 0.0
14/09:00am 19.0 15.7 4.4 38 7.0 WSW 11 17 6 9 1016.1 1016.1 0.0
14/08:30am 16.2 13.7 6.6 53 4.7 W 9 11 5 6 1016.1 1016.1 0.0
14/08:00am 13.7 11.1 6.3 61 3.5 W 9 13 5 7 1016.1 1016.1 0.0
14/07:30am 12.2 9.6 6.0 66 2.9 W 9 13 5 7 1015.8 1015.8 0.0
14/07:00am 11.3 8.3 6.0 70 2.5 W 11 15 6 8 1015.5 1015.5 0.0
14/06:30am 10.1 7.5 6.3 77 1.8 W 9 11 5 6 1015.1 1015.1 0.0
14/06:00am 10.7 8.2 6.5 75 2.0 WNW 9 11 5 6 1014.8 1014.8 0.0
14/05:30am 8.9 8.0 6.2 83 1.2 CALM 0 0 0 0 1014.4 1014.4 0.0
14/05:00am 9.5 7.6 6.8 83 1.3 W 6 7 3 4 1014.2 1014.2 0.0
14/04:30am 8.0 5.8 5.1 82 1.3 NW 6 7 3 4 1014.0 1014.0 0.0
14/04:00am 11.7 9.7 7.2 74 2.2 WNW 7 9 4 5 1014.0 1014.0 0.0
14/03:30am 12.0 9.6 6.9 71 2.4 WSW 9 13 5 7 1014.0 1014.0 0.0
14/03:00am 11.8 9.5 7.5 75 2.1 W 9 11 5 6 1014.1 1014.1 0.0
14/02:30am 12.0 9.3 7.5 74 2.2 W 11 11 6 6 1014.0 1014.0 0.0
14/02:00am 11.5 9.8 7.4 76 2.0 W 6 9 3 5 1014.1 1014.1 0.0
14/01:30am 11.6 10.3 7.5 76 2.0 SSW 4 7 2 4 1014.2 1014.2 0.0
14/01:00am 13.1 11.3 8.0 71 2.5 W 7 9 4 5 1014.3 1014.3 0.0
14/12:30am 13.0 11.2 7.9 71 2.5 W 7 9 4 5 1014.3 1014.3 0.0
14/12:00am 12.1 11.5 7.2 72 2.4 CALM 0 0 0 0 1014.3 1014.3 0.0
 
Date/Time
EDT
Temp
°C
App
Temp
°C
Dew
Point
°C
Rel
Hum
%
Delta-T
°C
Wind Press
QNH
hPa
Press
MSL
hPa
Rain since
9am
mm
Dir  Spd
km/h
Gust
km/h
Spd
kts
Gust
kts
13/11:30pm 10.7 8.7 6.3 74 2.1 NNE 6 7 3 4 1014.3 1014.3 0.0
13/11:00pm 13.4 11.6 7.2 66 3.0 NNW 6 7 3 4 1014.5 1014.5 0.0
13/10:30pm 12.4 10.5 6.9 69 2.6 NE 6 7 3 4 1014.6 1014.6 0.0
13/10:00pm 13.5 11.5 7.1 65 3.1 ENE 7 9 4 5 1014.6 1014.6 0.0
13/09:30pm 13.8 11.9 6.9 63 3.3 ENE 6 7 3 4 1014.3 1014.3 0.0
13/09:00pm 14.0 11.6 7.1 63 3.4 ENE 9 15 5 8 1013.8 1013.8 0.0
13/08:30pm 14.0 11.6 6.8 62 3.5 E 9 11 5 6 1013.2 1013.2 0.0
13/08:00pm 14.8 12.3 6.6 58 4.0 E 9 11 5 6 1012.9 1012.9 0.0
13/07:30pm 16.2 13.7 6.6 53 4.7 NE 9 13 5 7 1012.5 1012.5 0.0
13/07:00pm 17.3 14.2 7.1 51 5.1 NE 13 15 7 8 1012.2 1012.2 0.0
13/06:30pm 18.5 15.1 6.0 44 6.2 E 13 15 7 8 1012.0 1012.0 0.0
13/06:00pm 19.1 15.5 5.2 40 6.8 E 13 19 7 10 1012.0 1012.0 0.0
13/05:30pm 19.6 15.2 4.9 38 7.1 ESE 17 20 9 11 1012.1 1012.1 0.0
13/05:00pm 19.6 14.8 2.5 32 7.9 SE 17 24 9 13 1012.2 1012.2 0.0
13/04:30pm 19.9 15.1 4.4 36 7.5 ESE 19 26 10 14 1011.7 1011.7 0.0
13/04:00pm 20.0 14.3 2.8 32 8.0 SE 22 30 12 16 1011.3 1011.3 0.0
13/03:30pm 20.3 13.6 3.9 34 7.8 SE 28 37 15 20 1011.3 1011.3 0.0
13/03:00pm 20.5 13.1 4.1 34 7.9 SE 32 41 17 22 1011.2 1011.2 0.0
13/02:30pm 20.7 12.6 3.4 32 8.2 SE 35 48 19 26 1011.4 1011.4 0.0
13/02:00pm 21.6 14.5 3.8 31 8.6 SE 30 41 16 22 1011.7 1011.7 0.0
13/01:30pm 21.9 15.0 6.6 37 7.8 ESE 32 46 17 25 1011.8 1011.8 0.0
13/01:22pm 22.7 16.6 6.5 35 8.3 ESE 28 46 15 25 1011.6 1011.6 0.0
13/01:00pm 22.9 17.3 7.1 36 8.2 ESE 26 37 14 20 1011.7 1011.7 0.0
13/12:30pm 22.0 16.6 8.2 41 7.2 E 26 39 14 21 1011.9 1011.9 0.0
13/12:00pm 24.6 20.8 -0.5 19 11.4 S 9 19 5 10 1012.3 1012.3 0.0
13/11:30am 23.9 18.9 1.5 23 10.5 WSW 17 32 9 17 1012.4 1012.4 0.0
13/11:00am 23.1 18.4 3.1 27 9.6 W 17 28 9 15 1012.6 1012.6 0.0
13/10:30am 22.5 17.8 3.1 28 9.3 SW 17 32 9 17 1012.7 1012.7 0.0
13/10:00am 21.6 17.3 5.1 34 8.2 SW 17 26 9 14 1012.7 1012.7 0.0
13/09:30am 20.7 15.6 5.9 38 7.4 WSW 22 32 12 17 1012.7 1012.7 0.0
13/09:00am 20.1 15.4 6.1 40 7.0 SW 20 30 11 16 1012.8 1012.8 0.0
13/08:30am 18.9 14.8 7.7 48 5.7 WSW 19 26 10 14 1012.8 1012.8 0.0
13/08:00am 18.6 15.1 8.8 53 5.1 SW 17 28 9 15 1012.7 1012.7 0.0
13/07:30am 18.2 13.9 9.5 57 4.6 SW 22 30 12 16 1012.4 1012.4 0.0
13/07:00am 17.4 14.0 10.5 64 3.7 SW 19 28 10 15 1012.0 1012.0 0.0
13/06:30am 16.8 13.9 10.9 68 3.2 SSW 17 19 9 10 1011.7 1011.7 0.0
13/06:00am 16.5 13.9 10.8 69 3.0 SSW 15 20 8 11 1011.2 1011.2 0.0
13/05:30am 16.9 14.0 11.0 68 3.2 SSW 17 28 9 15 1010.6 1010.6 0.0
13/05:00am 17.2 15.1 11.0 67 3.3 SSW 13 20 7 11 1010.1 1010.0 0.0
13/04:30am 17.7 13.9 11.3 66 3.5 SSW 22 32 12 17 1009.8 1009.7 0.0
13/04:00am 18.0 14.0 11.8 67 3.4 SSW 24 33 13 18 1009.6 1009.5 0.0
13/03:30am 18.3 13.3 12.3 68 3.3 SSW 30 37 16 20 1009.3 1009.2 0.0
13/03:00am 18.7 13.4 12.5 67 3.5 SSW 32 41 17 22 1008.9 1008.8 0.0
13/02:30am 19.1 14.0 13.1 68 3.4 S 32 44 17 24 1008.3 1008.2 0.0
13/02:27am 19.1 14.8 13.1 68 3.4 SSW 28 44 15 24 1008.3 1008.2 0.0
13/02:00am 19.6 17.4 13.3 67 3.6 SSW 17 26 9 14 1008.2 1008.1 0.0
13/01:30am 20.2 15.5 13.2 64 4.0 SSW 30 41 16 22 1007.3 1007.2 0.0
13/01:00am 21.0 16.4 12.2 57 5.0 SSW 28 39 15 21 1006.7 1006.6 0.0
13/12:30am 22.3 16.9 9.5 44 6.9 SSW 28 43 15 23 1005.8 1005.7 0.0
13/12:00am 22.9 18.9 8.2 39 7.8 S 19 30 10 16 1005.3 1005.2 0.0
 
Date/Time
EDT
Temp
°C
App
Temp
°C
Dew
Point
°C
Rel
Hum
%
Delta-T
°C
Wind Press
QNH
hPa
Press
MSL
hPa
Rain since
9am
mm
Dir  Spd
km/h
Gust
km/h
Spd
kts
Gust
kts
12/11:37pm 23.4 16.9 8.3 38 8.0 S 32 43 17 23 1004.8 1004.7 0.0

Other formats

Comma delimited format used in spreadsheet applications
http://www.bom.gov.au/fwo/IDN60801/IDN60801.95784.axf

JavaScript Object Notation format (JSON) in row-major order
http://www.bom.gov.au/fwo/IDN60801/IDN60801.95784.json

Data quality

Most of these data are generated automatically and are frequently updated. Quality checks on data are not normally performed. It is possible for incorrect values to appear. Refer to information at About Latest Weather Observations and please check the disclaimer before using these data.